Terminal Aerodrome Forecast
Issued by NWS

Home | Current Version | Previous Version | Text Only | Print | Product List | Glossary On
Versions: 1 2 3 4 5 6 7 8 9 10 11 12 13 14 15 16 17 18 19 20 21
000
FTUS41 KOKX 241100 RRA
TAFSWF
TAF
KSWF 241150Z 2412/2518 VRB04KT P6SM BKN040
      TEMPO 2412/2413 BKN015
     FM241300 36010KT P6SM SCT040 SCT150 SCT250
     FM242200 35008KT P6SM SCT050 SCT250
     FM250200 VRB03KT P6SM FEW050
     FM251600 24005KT P6SM FEW040
      AMD NOT SKED=

USA.gov is the U.S. government's official web portal to all federal, state and local government web resources and services.